Terminal Aerodrome Forecast
Issued by NWS Nashville, TN

Home | Current Version | Previous Version | Text Only | Print | Product List | Glossary On
Versions: 1 2 3 4 5 6 7 8 9 10 11 12 13 14 15 16 17 18 19 20 21
000
FTUS44 KOHX 281726
TAFCSV
TAF
KCSV 281726Z 2818/2918 25006KT P6SM VCSH SCT004 OVC015
      TEMPO 2818/2821 5SM -SHRA BR BKN004 OVC012
     FM282100 27006KT P6SM VCTS OVC030CB
      TEMPO 2821/2823 2SM TSRA BKN008 OVC015CB
     FM290000 31006KT P6SM OVC020
     FM290500 32006KT 4SM BR OVC007=

USA.gov is the U.S. government's official web portal to all federal, state and local government web resources and services.